Time,TemperatureF,DewpointF,PressureIn,WindDirection,WindDirectionDegrees,WindSpeedMPH,WindSpeedGustMPH,Humidity,HourlyPrecipIn,Conditions,Clouds,dailyrainin,SoftwareType,DateUTC
2013-03-22 00:27:00,59.2,37.2,29.56,NW,315,8.9,8.9,44,0.00,,OVC,0.00,WUHU21623XXSP,2013-03-21 22:27:00,
2013-03-22 01:27:00,57.0,36.9,29.56,NNE,23,0.0,0.0,47,0.00,,OVC,0.00,WUHU21623XXSP,2013-03-21 23:27:00,
2013-03-22 02:27:00,55.8,37.4,29.57,NE,45,0.0,0.0,50,0.00,,OVC,0.00,WUHU21623XXSP,2013-03-22 00:27:00,
2013-03-22 03:27:00,54.5,37.7,29.56,WNW,293,1.8,1.8,53,0.00,,SKC,0.00,WUHU21623XXSP,2013-03-22 01:27:00,
2013-03-22 04:27:00,54.1,38.3,29.57,NNW,338,0.0,0.0,55,0.00,,SKC,0.00,WUHU21623XXSP,2013-03-22 02:27:00,
2013-03-22 05:27:00,53.6,38.8,29.59,NNW,338,0.0,0.0,57,0.00,,SKC,0.00,WUHU21623XXSP,2013-03-22 03:27:00,
2013-03-22 06:27:00,54.0,39.6,29.59,NNW,338,3.4,3.4,58,0.00,,SKC,0.00,WUHU21623XXSP,2013-03-22 04:27:00,
2013-03-22 07:27:00,55.2,40.3,29.62,SW,225,0.0,0.0,57,0.00,,SKC,0.00,WUHU21623XXSP,2013-03-22 05:27:00,
2013-03-22 08:16:00,56.3,39.9,29.62,NW,315,0.0,0.0,54,0.00,,SKC,0.00,WUHU21623XXSP,2013-03-22 06:16:00,
2013-03-22 08:17:00,56.1,39.7,29.62,West,270,0.0,0.0,54,0.00,,SKC,0.00,WUHU21623XXSP,2013-03-22 06:17:00,
2013-03-22 08:22:00,56.3,39.9,29.62,South,180,2.2,8.4,54,0.00,,FEW,0.00,WUHU21623XXSP,2013-03-22 06:22:00,
2013-03-22 08:27:00,56.7,39.8,29.62,WNW,292,0.0,8.4,53,0.00,,FEW,0.00,WUHU21623XXSP,2013-03-22 06:27:00,
2013-03-22 08:32:00,57.0,39.6,29.62,NE,45,0.0,6.6,52,0.00,,FEW,0.00,WUHU21623XXSP,2013-03-22 06:32:00,
2013-03-22 08:37:00,57.4,39.9,29.62,West,270,4.7,9.1,52,0.00,,FEW,0.00,WUHU21623XXSP,2013-03-22 06:37:00,
2013-03-22 08:42:00,57.6,39.6,29.62,West,270,3.2,9.6,51,0.00,,FEW,0.00,WUHU21623XXSP,2013-03-22 06:42:00,
2013-03-22 08:47:00,57.9,39.4,29.62,NNW,337,2.8,11.1,50,0.00,,FEW,0.00,WUHU21623XXSP,2013-03-22 06:47:00,
2013-03-22 08:52:00,58.1,39.0,29.62,NW,315,2.8,11.1,49,0.00,,FEW,0.00,WUHU21623XXSP,2013-03-22 06:52:00,
2013-03-22 08:57:00,58.5,38.8,29.62,ENE,67,0.0,8.4,48,0.00,,FEW,0.00,WUHU21623XXSP,2013-03-22 06:57:00,
2013-03-22 09:02:00,58.6,38.4,29.62,NNW,337,0.0,8.4,47,0.00,,FEW,0.00,WUHU21623XXSP,2013-03-22 07:02:00,
2013-03-22 09:07:00,58.8,38.0,29.62,NW,315,0.0,4.7,46,0.00,,FEW,0.00,WUHU21623XXSP,2013-03-22 07:07:00,
2013-03-22 09:12:00,59.2,38.4,29.62,NW,315,1.8,12.8,46,0.00,,FEW,0.00,WUHU21623XXSP,2013-03-22 07:12:00,
2013-03-22 09:17:00,59.2,37.8,29.62,WSW,247,0.0,12.8,45,0.00,,FEW,0.00,WUHU21623XXSP,2013-03-22 07:17:00,
2013-03-22 09:22:00,59.2,37.8,29.62,WNW,292,0.0,5.6,45,0.00,,FEW,0.00,WUHU21623XXSP,2013-03-22 07:22:00,
2013-03-22 09:27:00,59.2,37.8,29.62,SE,135,4.2,8.1,45,0.00,,FEW,0.00,WUHU21623XXSP,2013-03-22 07:27:00,
2013-03-22 09:32:00,59.2,37.8,29.62,NE,45,0.0,8.1,45,0.00,,FEW,0.00,WUHU21623XXSP,2013-03-22 07:32:00,
2013-03-22 09:37:00,59.7,38.2,29.62,NW,315,4.2,9.1,45,0.00,,FEW,0.00,WUHU21623XXSP,2013-03-22 07:37:00,
2013-03-22 09:42:00,59.7,37.7,29.62,NNE,22,0.0,11.1,44,0.00,,FEW,0.00,WUHU21623XXSP,2013-03-22 07:42:00,
2013-03-22 09:47:00,59.7,37.7,29.62,NW,315,3.0,11.1,44,0.00,,FEW,0.00,WUHU21623XXSP,2013-03-22 07:47:00,
2013-03-22 09:52:00,59.7,37.7,29.62,North,0,3.2,9.6,44,0.00,,FEW,0.00,WUHU21623XXSP,2013-03-22 07:52:00,
2013-03-22 09:57:00,59.9,38.4,29.62,NW,315,1.8,14.7,45,0.00,,FEW,0.00,WUHU21623XXSP,2013-03-22 07:57:00,
2013-03-22 10:02:00,59.9,39.6,29.62,SSE,157,3.4,14.7,47,0.00,,FEW,0.00,WUHU21623XXSP,2013-03-22 08:02:00,
2013-03-22 10:07:00,60.1,39.2,29.61,WSW,247,10.1,10.8,46,0.00,,FEW,0.00,WUHU21623XXSP,2013-03-22 08:07:00,
2013-03-22 10:12:00,59.7,38.2,29.61,SW,225,10.8,20.1,45,0.00,,FEW,0.00,WUHU21623XXSP,2013-03-22 08:12:00,
2013-03-22 10:17:00,60.4,38.9,29.62,North,0,0.0,15.0,45,0.00,,FEW,0.00,WUHU21623XXSP,2013-03-22 08:17:00,
2013-03-22 10:22:00,60.4,37.7,29.61,NW,315,7.9,14.3,43,0.00,,FEW,0.00,WUHU21623XXSP,2013-03-22 08:22:00,
2013-03-22 10:27:00,60.6,37.9,29.61,NNW,337,0.0,11.6,43,0.00,,FEW,0.00,WUHU21623XXSP,2013-03-22 08:27:00,
2013-03-22 10:32:00,60.6,37.3,29.62,West,270,1.0,13.8,42,0.00,,FEW,0.00,WUHU21623XXSP,2013-03-22 08:32:00,
2013-03-22 10:37:00,60.6,37.9,29.61,NNE,22,0.0,13.8,43,0.00,,FEW,0.00,WUHU21623XXSP,2013-03-22 08:37:00,
2013-03-22 10:42:00,61.2,37.8,29.62,WNW,292,7.9,12.8,42,0.00,,FEW,0.00,WUHU21623XXSP,2013-03-22 08:42:00,
2013-03-22 10:47:00,61.2,37.2,29.61,NNW,337,5.4,18.5,41,0.00,,FEW,0.00,WUHU21623XXSP,2013-03-22 08:47:00,
2013-03-22 10:52:00,61.3,37.9,29.62,WNW,292,5.6,18.5,42,0.00,,FEW,0.00,WUHU21623XXSP,2013-03-22 08:52:00,
2013-03-22 10:57:00,61.5,38.1,29.61,West,270,3.2,13.1,42,0.00,,FEW,0.00,WUHU21623XXSP,2013-03-22 08:57:00,
2013-03-22 11:02:00,61.7,37.0,29.62,NW,315,18.3,18.3,40,0.00,,FEW,0.00,WUHU21623XXSP,2013-03-22 09:02:00,
2013-03-22 11:07:00,61.7,36.3,29.61,West,270,5.6,18.3,39,0.00,,FEW,0.00,WUHU21623XXSP,2013-03-22 09:07:00,
2013-03-22 11:12:00,61.7,36.3,29.62,WSW,247,0.0,12.8,39,0.00,,FEW,0.00,WUHU21623XXSP,2013-03-22 09:12:00,
2013-03-22 11:17:00,61.3,36.0,29.62,WNW,292,11.6,15.5,39,0.00,,FEW,0.00,WUHU21623XXSP,2013-03-22 09:17:00,
2013-03-22 11:22:00,61.5,35.5,29.62,NW,315,14.5,16.5,38,0.00,,FEW,0.00,WUHU21623XXSP,2013-03-22 09:22:00,
2013-03-22 11:27:00,61.5,34.8,29.62,NW,315,3.4,16.5,37,0.00,,FEW,0.00,WUHU21623XXSP,2013-03-22 09:27:00,
2013-03-22 11:32:00,62.1,35.3,29.62,WSW,247,8.6,12.5,37,0.00,,FEW,0.00,WUHU21623XXSP,2013-03-22 09:32:00,
2013-03-22 11:37:00,61.9,35.1,29.62,WNW,292,4.0,13.5,37,0.00,,FEW,0.00,WUHU21623XXSP,2013-03-22 09:37:00,
2013-03-22 11:42:00,61.5,34.8,29.62,WSW,247,5.4,14.3,37,0.00,,FEW,0.00,WUHU21623XXSP,2013-03-22 09:42:00,
2013-03-22 11:47:00,61.5,34.8,29.62,NW,315,2.8,15.3,37,0.00,,FEW,0.00,WUHU21623XXSP,2013-03-22 09:47:00,
2013-03-22 11:52:00,61.7,34.3,29.62,West,270,12.8,19.1,36,0.00,,FEW,0.00,WUHU21623XXSP,2013-03-22 09:52:00,
2013-03-22 11:57:00,61.7,34.3,29.62,WNW,292,5.2,19.1,36,0.00,,FEW,0.00,WUHU21623XXSP,2013-03-22 09:57:00,
2013-03-22 12:02:00,61.9,34.4,29.62,West,270,0.0,16.7,36,0.00,,FEW,0.00,WUHU21623XXSP,2013-03-22 10:02:00,
2013-03-22 12:07:00,62.1,34.6,29.62,WNW,292,4.0,11.3,36,0.00,,FEW,0.00,WUHU21623XXSP,2013-03-22 10:07:00,
2013-03-22 12:12:00,61.9,35.1,29.62,NNW,337,0.0,17.5,37,0.00,,FEW,0.00,WUHU21623XXSP,2013-03-22 10:12:00,
2013-03-22 12:18:00,62.2,35.4,29.62,West,270,0.0,18.5,37,0.00,,FEW,0.00,WUHU21623XXSP,2013-03-22 10:18:00,
2013-03-22 12:23:00,62.8,33.8,29.62,SSW,202,4.9,18.5,34,0.00,,FEW,0.00,WUHU21623XXSP,2013-03-22 10:23:00,
2013-03-22 12:28:00,62.4,33.4,29.62,WNW,292,9.8,16.3,34,0.00,,FEW,0.00,WUHU21623XXSP,2013-03-22 10:28:00,
2013-03-22 12:33:00,63.3,34.2,29.62,WNW,292,7.2,16.3,34,0.00,,FEW,0.00,WUHU21623XXSP,2013-03-22 10:33:00,
2013-03-22 12:38:00,63.1,34.1,29.62,NW,315,7.6,13.3,34,0.00,,FEW,0.00,WUHU21623XXSP,2013-03-22 10:38:00,
2013-03-22 12:43:00,62.8,33.8,29.62,West,270,5.2,13.1,34,0.00,,FEW,0.00,WUHU21623XXSP,2013-03-22 10:43:00,
2013-03-22 12:48:00,62.8,33.8,29.61,SW,225,7.9,17.5,34,0.00,,FEW,0.00,WUHU21623XXSP,2013-03-22 10:48:00,
2013-03-22 12:53:00,62.8,33.8,29.62,NW,315,4.4,17.5,34,0.00,,FEW,0.00,WUHU21623XXSP,2013-03-22 10:53:00,
2013-03-22 12:58:00,62.4,33.4,29.62,WNW,292,6.4,15.7,34,0.00,,FEW,0.00,WUHU21623XXSP,2013-03-22 10:58:00,
2013-03-22 13:03:00,62.2,33.3,29.62,West,270,4.2,20.1,34,0.00,,FEW,0.00,WUHU21623XXSP,2013-03-22 11:03:00,
2013-03-22 13:08:00,62.8,33.8,29.62,SW,225,7.9,20.1,34,0.00,,FEW,0.00,WUHU21623XXSP,2013-03-22 11:08:00,
2013-03-22 13:13:00,62.2,33.3,29.62,SW,225,4.7,17.3,34,0.00,,FEW,0.00,WUHU21623XXSP,2013-03-22 11:13:00,
2013-03-22 13:18:00,62.8,33.8,29.62,South,180,4.2,16.9,34,0.00,,FEW,0.00,WUHU21623XXSP,2013-03-22 11:18:00,
2013-03-22 13:23:00,63.0,34.0,29.62,WSW,247,12.3,24.1,34,0.00,,FEW,0.00,WUHU21623XXSP,2013-03-22 11:23:00,
2013-03-22 13:28:00,62.8,33.8,29.62,North,0,0.0,24.1,34,0.00,,FEW,0.00,WUHU21623XXSP,2013-03-22 11:28:00,
2013-03-22 13:33:00,63.1,34.1,29.62,SSW,202,4.9,19.9,34,0.00,,FEW,0.00,WUHU21623XXSP,2013-03-22 11:33:00,
2013-03-22 13:38:00,63.3,34.2,29.62,West,270,3.7,10.1,34,0.00,,FEW,0.00,WUHU21623XXSP,2013-03-22 11:38:00,
2013-03-22 13:43:00,63.1,34.1,29.61,NNW,337,7.6,14.5,34,0.00,,FEW,0.00,WUHU21623XXSP,2013-03-22 11:43:00,
2013-03-22 13:48:00,63.0,34.0,29.61,West,270,8.4,14.5,34,0.00,,FEW,0.00,WUHU21623XXSP,2013-03-22 11:48:00,
2013-03-22 13:53:00,63.0,34.0,29.61,SW,225,11.1,18.9,34,0.00,,FEW,0.00,WUHU21623XXSP,2013-03-22 11:53:00,
2013-03-22 13:58:00,63.0,34.0,29.62,ENE,67,0.0,18.9,34,0.00,,FEW,0.00,WUHU21623XXSP,2013-03-22 11:58:00,
2013-03-22 14:03:00,63.0,34.0,29.61,North,0,9.4,16.9,34,0.00,,FEW,0.00,WUHU21623XXSP,2013-03-22 12:03:00,
2013-03-22 14:08:00,63.3,34.2,29.61,NNE,22,3.4,20.1,34,0.00,,FEW,0.00,WUHU21623XXSP,2013-03-22 12:08:00,
2013-03-22 14:13:00,63.3,34.2,29.61,WNW,292,3.0,20.1,34,0.00,,FEW,0.00,WUHU21623XXSP,2013-03-22 12:13:00,
2013-03-22 14:18:00,63.5,34.4,29.61,SE,135,2.2,18.9,34,0.00,,FEW,0.00,WUHU21623XXSP,2013-03-22 12:18:00,
2013-03-22 14:23:00,63.3,34.2,29.62,West,270,5.4,12.3,34,0.00,,FEW,0.00,WUHU21623XXSP,2013-03-22 12:23:00,
2013-03-22 14:28:00,63.3,34.2,29.62,West,270,10.1,12.8,34,0.00,,FEW,0.00,WUHU21623XXSP,2013-03-22 12:28:00,
2013-03-22 14:33:00,63.0,34.0,29.62,NNW,337,3.4,12.8,34,0.00,,FEW,0.00,WUHU21623XXSP,2013-03-22 12:33:00,
2013-03-22 14:38:00,63.1,34.1,29.61,NW,315,4.0,13.1,34,0.00,,FEW,0.00,WUHU21623XXSP,2013-03-22 12:38:00,
2013-03-22 14:43:00,63.1,34.1,29.61,NNE,22,6.6,13.1,34,0.00,,FEW,0.00,WUHU21623XXSP,2013-03-22 12:43:00,
2013-03-22 14:48:00,63.3,34.2,29.62,NW,315,5.4,9.4,34,0.00,,FEW,0.00,WUHU21623XXSP,2013-03-22 12:48:00,
2013-03-22 14:53:00,63.5,34.4,29.62,WNW,292,7.9,20.9,34,0.00,,FEW,0.00,WUHU21623XXSP,2013-03-22 12:53:00,
2013-03-22 14:58:00,63.9,34.8,29.61,South,180,1.8,20.9,34,0.00,,FEW,0.00,WUHU21623XXSP,2013-03-22 12:58:00,
2013-03-22 15:03:00,63.5,34.4,29.61,NW,315,2.0,15.5,34,0.00,,FEW,0.00,WUHU21623XXSP,2013-03-22 13:03:00,
2013-03-22 15:08:00,63.7,34.6,29.61,NNE,22,6.2,15.5,34,0.00,,FEW,0.00,WUHU21623XXSP,2013-03-22 13:08:00,
2013-03-22 15:13:00,63.7,34.6,29.62,NNW,337,3.7,19.7,34,0.00,,FEW,0.00,WUHU21623XXSP,2013-03-22 13:13:00,
2013-03-22 15:18:00,63.5,34.4,29.62,NW,315,4.2,19.7,34,0.00,,FEW,0.00,WUHU21623XXSP,2013-03-22 13:18:00,
2013-03-22 15:23:00,63.9,34.8,29.61,SW,225,5.4,18.3,34,0.00,,FEW,0.00,WUHU21623XXSP,2013-03-22 13:23:00,
2013-03-22 15:28:00,63.5,34.4,29.61,WNW,292,8.4,18.3,34,0.00,,FEW,0.00,WUHU21623XXSP,2013-03-22 13:28:00,
2013-03-22 15:33:00,63.3,34.2,29.61,SW,225,6.9,15.7,34,0.00,,FEW,0.00,WUHU21623XXSP,2013-03-22 13:33:00,
2013-03-22 15:38:00,63.5,34.4,29.62,ESE,112,0.0,15.7,34,0.00,,FEW,0.00,WUHU21623XXSP,2013-03-22 13:38:00,
2013-03-22 15:43:00,63.0,34.0,29.62,NW,315,7.4,17.3,34,0.00,,FEW,0.00,WUHU21623XXSP,2013-03-22 13:43:00,
2013-03-22 15:48:00,62.8,33.8,29.62,ENE,67,4.9,17.3,34,0.00,,FEW,0.00,WUHU21623XXSP,2013-03-22 13:48:00,
2013-03-22 15:53:00,62.8,33.8,29.62,SSE,157,1.4,15.5,34,0.00,,FEW,0.00,WUHU21623XXSP,2013-03-22 13:53:00,
2013-03-22 15:58:00,62.8,33.8,29.61,South,180,8.1,13.1,34,0.00,,FEW,0.00,WUHU21623XXSP,2013-03-22 13:58:00,
2013-03-22 16:03:00,62.8,33.8,29.62,SW,225,11.3,13.1,34,0.00,,FEW,0.00,WUHU21623XXSP,2013-03-22 14:03:00,
2013-03-22 16:27:00,62.1,33.2,29.63,West,270,11.3,11.3,34,0.00,,FEW,0.00,WUHU21623XXSP,2013-03-22 14:27:00,
2013-03-22 17:29:00,61.2,32.4,29.65,NW,315,0.0,0.0,34,0.00,,FEW,0.00,WUHU21623XXSP,2013-03-22 15:29:00,
2013-03-22 17:34:00,61.2,32.4,29.65,SSW,202,0.0,7.6,34,0.00,,FEW,0.00,WUHU21623XXSP,2013-03-22 15:34:00,
2013-03-22 17:39:00,61.0,32.2,29.65,North,0,2.2,10.8,34,0.00,,FEW,0.00,WUHU21623XXSP,2013-03-22 15:39:00,
2013-03-22 17:44:00,61.0,32.2,29.65,South,180,0.0,10.8,34,0.00,,FEW,0.00,WUHU21623XXSP,2013-03-22 15:44:00,
2013-03-22 17:49:00,60.6,31.9,29.66,WSW,247,8.6,12.5,34,0.00,,FEW,0.00,WUHU21623XXSP,2013-03-22 15:49:00,
2013-03-22 17:54:00,60.4,31.7,29.66,SW,225,0.0,12.5,34,0.00,,FEW,0.00,WUHU21623XXSP,2013-03-22 15:54:00,
2013-03-22 17:59:00,60.4,31.7,29.66,NW,315,4.4,6.9,34,0.00,,FEW,0.00,WUHU21623XXSP,2013-03-22 15:59:00,
2013-03-22 18:04:00,60.1,31.4,29.66,NNW,337,3.7,6.6,34,0.00,,FEW,0.00,WUHU21623XXSP,2013-03-22 16:04:00,
2013-03-22 18:09:00,59.9,31.2,29.66,West,270,1.4,8.1,34,0.00,,FEW,0.00,WUHU21623XXSP,2013-03-22 16:09:00,
2013-03-22 18:14:00,59.7,31.1,29.66,ENE,67,0.0,9.1,34,0.00,,FEW,0.00,WUHU21623XXSP,2013-03-22 16:14:00,
2013-03-22 18:19:00,59.4,30.8,29.66,WNW,292,3.0,9.1,34,0.00,,FEW,0.00,WUHU21623XXSP,2013-03-22 16:19:00,
2013-03-22 18:24:00,59.4,30.8,29.67,North,0,0.0,7.6,34,0.00,,FEW,0.00,WUHU21623XXSP,2013-03-22 16:24:00,
2013-03-22 18:29:00,59.0,30.4,29.67,SSW,202,0.0,7.6,34,0.00,,FEW,0.00,WUHU21623XXSP,2013-03-22 16:29:00,
2013-03-22 18:34:00,58.8,30.3,29.67,NW,315,0.0,5.4,34,0.00,,FEW,0.00,WUHU21623XXSP,2013-03-22 16:34:00,
2013-03-22 18:39:00,58.8,30.3,29.67,SSW,202,0.0,11.8,34,0.00,,FEW,0.00,WUHU21623XXSP,2013-03-22 16:39:00,
2013-03-22 18:44:00,58.6,30.1,29.67,WSW,247,5.9,11.8,34,0.00,,FEW,0.00,WUHU21623XXSP,2013-03-22 16:44:00,
2013-03-22 18:49:00,58.5,30.0,29.68,NW,315,7.4,8.9,34,0.00,,FEW,0.00,WUHU21623XXSP,2013-03-22 16:49:00,
2013-03-22 18:54:00,58.3,29.8,29.67,NNW,337,3.2,10.3,34,0.00,,FEW,0.00,WUHU21623XXSP,2013-03-22 16:54:00,
2013-03-22 18:59:00,58.3,29.8,29.68,WNW,292,7.2,10.3,34,0.00,,FEW,0.00,WUHU21623XXSP,2013-03-22 16:59:00,
2013-03-22 19:04:00,58.1,29.6,29.68,WNW,292,1.4,7.2,34,0.00,,FEW,0.00,WUHU21623XXSP,2013-03-22 17:04:00,
2013-03-22 19:09:00,58.1,29.6,29.68,NW,315,2.2,10.1,34,0.00,,FEW,0.00,WUHU21623XXSP,2013-03-22 17:09:00,
2013-03-22 19:14:00,57.9,30.2,29.69,WSW,247,5.6,10.6,35,0.00,,FEW,0.00,WUHU21623XXSP,2013-03-22 17:14:00,
2013-03-22 19:19:00,57.9,30.9,29.69,NNW,337,0.0,11.1,36,0.00,,FEW,0.00,WUHU21623XXSP,2013-03-22 17:19:00,
2013-03-22 19:24:00,57.9,30.9,29.69,WNW,292,0.0,11.8,36,0.00,,FEW,0.00,WUHU21623XXSP,2013-03-22 17:24:00,
2013-03-22 19:29:00,57.7,30.0,29.69,NW,315,0.0,11.8,35,0.00,,FEW,0.00,WUHU21623XXSP,2013-03-22 17:29:00,
2013-03-22 19:34:00,57.7,30.0,29.69,North,0,0.0,10.8,35,0.00,,FEW,0.00,WUHU21623XXSP,2013-03-22 17:34:00,
2013-03-22 19:39:00,57.7,30.0,29.70,WNW,292,0.0,10.3,35,0.00,,FEW,0.00,WUHU21623XXSP,2013-03-22 17:39:00,
2013-03-22 19:44:00,57.6,29.9,29.70,North,0,0.0,4.4,35,0.00,,FEW,0.00,WUHU21623XXSP,2013-03-22 17:44:00,
2013-03-22 19:49:00,57.6,29.9,29.70,SE,135,0.0,5.9,35,0.00,,FEW,0.00,WUHU21623XXSP,2013-03-22 17:49:00,
2013-03-22 19:54:00,57.4,29.7,29.70,NW,315,0.0,10.3,35,0.00,,FEW,0.00,WUHU21623XXSP,2013-03-22 17:54:00,
2013-03-22 19:59:00,57.4,29.7,29.70,NNW,337,6.2,10.3,35,0.00,,FEW,0.00,WUHU21623XXSP,2013-03-22 17:59:00,
2013-03-22 20:04:00,57.2,29.6,29.70,WNW,292,0.0,7.6,35,0.00,,FEW,0.00,WUHU21623XXSP,2013-03-22 18:04:00,
2013-03-22 20:09:00,57.0,29.4,29.70,WNW,292,1.2,7.4,35,0.00,,FEW,0.00,WUHU21623XXSP,2013-03-22 18:09:00,
2013-03-22 20:14:00,57.0,29.4,29.70,NW,315,1.8,7.6,35,0.00,,FEW,0.00,WUHU21623XXSP,2013-03-22 18:14:00,
2013-03-22 20:19:00,57.0,29.4,29.71,North,0,0.0,7.6,35,0.00,,FEW,0.00,WUHU21623XXSP,2013-03-22 18:19:00,
2013-03-22 20:24:00,56.8,29.9,29.71,NNW,337,4.0,4.9,36,0.00,,FEW,0.00,WUHU21623XXSP,2013-03-22 18:24:00,
2013-03-22 20:29:00,56.8,29.9,29.72,NW,315,2.8,6.2,36,0.00,,FEW,0.00,WUHU21623XXSP,2013-03-22 18:29:00,
2013-03-22 20:34:00,56.7,29.8,29.71,West,270,0.0,6.2,36,0.00,,FEW,0.00,WUHU21623XXSP,2013-03-22 18:34:00,
2013-03-22 20:39:00,56.7,29.8,29.72,West,270,0.0,6.4,36,0.00,,FEW,0.00,WUHU21623XXSP,2013-03-22 18:39:00,
2013-03-22 20:44:00,56.5,30.3,29.72,WNW,292,0.0,6.4,37,0.00,,FEW,0.00,WUHU21623XXSP,2013-03-22 18:44:00,
2013-03-22 20:49:00,56.5,30.3,29.72,NW,315,2.4,6.2,37,0.00,,FEW,0.00,WUHU21623XXSP,2013-03-22 18:49:00,
2013-03-22 20:54:00,56.5,30.3,29.72,NW,315,0.8,4.9,37,0.00,,FEW,0.00,WUHU21623XXSP,2013-03-22 18:54:00,
2013-03-22 20:59:00,56.3,30.1,29.72,WNW,292,0.0,4.7,37,0.00,,FEW,0.00,WUHU21623XXSP,2013-03-22 18:59:00,
2013-03-22 21:04:00,56.3,30.8,29.72,WNW,292,4.2,5.9,38,0.00,,FEW,0.00,WUHU21623XXSP,2013-03-22 19:04:00,
2013-03-22 21:09:00,56.1,30.6,29.72,WNW,292,0.0,5.9,38,0.00,,FEW,0.00,WUHU21623XXSP,2013-03-22 19:09:00,
2013-03-22 21:14:00,56.1,30.6,29.72,West,270,0.0,5.9,38,0.00,,FEW,0.00,WUHU21623XXSP,2013-03-22 19:14:00,
2013-03-22 21:19:00,56.1,30.6,29.72,WNW,292,0.0,1.8,38,0.00,,FEW,0.00,WUHU21623XXSP,2013-03-22 19:19:00,
2013-03-22 21:24:00,56.1,30.0,29.73,NNW,337,0.0,2.8,37,0.00,,FEW,0.00,WUHU21623XXSP,2013-03-22 19:24:00,
2013-03-22 21:29:00,56.1,30.0,29.73,NNW,337,2.2,6.9,37,0.00,,FEW,0.00,WUHU21623XXSP,2013-03-22 19:29:00,
2013-03-22 21:34:00,56.1,29.3,29.73,West,270,0.0,6.9,36,0.00,,FEW,0.00,WUHU21623XXSP,2013-03-22 19:34:00,
2013-03-22 21:39:00,56.3,29.5,29.73,North,0,0.0,6.6,36,0.00,,FEW,0.00,WUHU21623XXSP,2013-03-22 19:39:00,
2013-03-22 21:44:00,56.3,28.8,29.73,East,90,0.0,6.2,35,0.00,,FEW,0.00,WUHU21623XXSP,2013-03-22 19:44:00,
2013-03-22 21:49:00,56.3,28.8,29.73,WSW,247,4.0,7.4,35,0.00,,FEW,0.00,WUHU21623XXSP,2013-03-22 19:49:00,
2013-03-22 21:54:00,56.3,28.8,29.74,NW,315,4.2,7.4,35,0.00,,FEW,0.00,WUHU21623XXSP,2013-03-22 19:54:00,
2013-03-22 21:59:00,56.1,28.6,29.74,NNW,337,0.0,7.6,35,0.00,,FEW,0.00,WUHU21623XXSP,2013-03-22 19:59:00,
2013-03-22 22:04:00,56.1,28.6,29.74,NW,315,0.0,7.6,35,0.00,,FEW,0.00,WUHU21623XXSP,2013-03-22 20:04:00,
2013-03-22 22:09:00,56.1,28.6,29.74,SSW,202,2.8,8.4,35,0.00,,FEW,0.00,WUHU21623XXSP,2013-03-22 20:09:00,
2013-03-22 22:14:00,55.9,28.4,29.74,WNW,292,0.0,7.6,35,0.00,,FEW,0.00,WUHU21623XXSP,2013-03-22 20:14:00,
2013-03-22 22:19:00,56.1,28.6,29.75,West,270,1.2,5.9,35,0.00,,FEW,0.00,WUHU21623XXSP,2013-03-22 20:19:00,
2013-03-22 22:24:00,55.9,28.4,29.75,NW,315,0.0,8.1,35,0.00,,FEW,0.00,WUHU21623XXSP,2013-03-22 20:24:00,
2013-03-22 22:29:00,55.8,28.3,29.75,NW,315,0.0,8.1,35,0.00,,FEW,0.00,WUHU21623XXSP,2013-03-22 20:29:00,
2013-03-22 22:34:00,55.8,28.3,29.75,NNW,337,1.2,10.1,35,0.00,,FEW,0.00,WUHU21623XXSP,2013-03-22 20:34:00,
2013-03-22 22:39:00,55.6,28.1,29.75,ENE,67,0.0,10.6,35,0.00,,FEW,0.00,WUHU21623XXSP,2013-03-22 20:39:00,
2013-03-22 22:44:00,55.8,28.3,29.75,NNW,337,1.0,10.6,35,0.00,,FEW,0.00,WUHU21623XXSP,2013-03-22 20:44:00,
2013-03-22 22:49:00,55.8,28.3,29.75,North,0,3.0,6.2,35,0.00,,FEW,0.00,WUHU21623XXSP,2013-03-22 20:49:00,
2013-03-22 23:27:00,55.2,27.8,29.76,NNW,338,0.0,0.0,35,0.00,,FEW,0.00,WUHU21623XXSP,2013-03-22 21:27:00,